Time;durP1;ratioP1;P1;durP2;ratioP2;P2;SDS_P1;SDS_P2;PMS_P1;PMS_P2;Temp;Humidity;BMP_temperature;BMP_pressure;BME280_temperature;BME280_humidity;BME280_pressure;Samples;Min_cycle;Max_cycle;Signal;HPM_P1;HPM_P2
2023/04/18 00:00:11;;;;;;;8.93;7.45;;;;;;;;;;5284950;28;20024;-75
2023/04/18 00:02:42;;;;;;;8.48;7.43;;;;;;;;;;5283540;28;20023;-75
2023/04/18 00:05:16;;;;;;;8.75;6.85;;;;;;;;;;5284767;28;20029;-75
2023/04/18 00:07:48;;;;;;;8.40;6.93;;;;;;;;;;5283016;28;20050;-75
2023/04/18 00:10:19;;;;;;;9.30;7.70;;;;;;;;;;5284282;28;20343;-75
2023/04/18 00:12:50;;;;;;;9.27;7.50;;;;;;;;;;5283944;28;20070;-75
2023/04/18 00:15:21;;;;;;;7.82;6.82;;;;;;;;;;5283820;28;20101;-75
2023/04/18 00:17:55;;;;;;;8.93;7.65;;;;;;;;;;5283713;28;20274;-75
2023/04/18 00:20:26;;;;;;;9.77;8.05;;;;;;;;;;5284188;28;20012;-75
2023/04/18 00:22:59;;;;;;;10.43;8.52;;;;;;;;;;5283165;28;20456;-76
2023/04/18 00:25:30;;;;;;;11.52;7.82;;;;;;;;;;5283717;28;20071;-74
2023/04/18 00:28:01;;;;;;;9.18;7.15;;;;;;;;;;5283744;28;20024;-75
2023/04/18 00:30:33;;;;;;;10.64;7.54;;;;;;;;;;5283102;28;20075;-74
2023/04/18 00:33:04;;;;;;;10.05;7.45;;;;;;;;;;5283524;28;20081;-74
2023/04/18 00:35:36;;;;;;;10.23;7.75;;;;;;;;;;5282864;28;20471;-74
2023/04/18 00:38:08;;;;;;;9.70;7.47;;;;;;;;;;5283576;28;20019;-76
2023/04/18 00:40:39;;;;;;;10.93;7.70;;;;;;;;;;5282896;28;20017;-75
2023/04/18 00:43:14;;;;;;;9.68;7.90;;;;;;;;;;5282818;28;20028;-75
2023/04/18 00:45:45;;;;;;;9.40;7.38;;;;;;;;;;5282955;28;20070;-75
2023/04/18 00:48:16;;;;;;;9.75;7.38;;;;;;;;;;5283568;28;20070;-75
2023/04/18 00:50:47;;;;;;;11.40;8.52;;;;;;;;;;5282347;28;20024;-75
2023/04/18 00:53:19;;;;;;;10.52;8.07;;;;;;;;;;5283432;28;20025;-75
2023/04/18 00:55:50;;;;;;;10.13;8.73;;;;;;;;;;5282742;28;20032;-75
2023/04/18 00:58:22;;;;;;;11.73;7.95;;;;;;;;;;5282949;28;20023;-75
2023/04/18 01:00:53;;;;;;;11.23;8.57;;;;;;;;;;5282676;28;20127;-75
2023/04/18 01:03:25;;;;;;;11.07;8.45;;;;;;;;;;5283396;28;20391;-75
2023/04/18 01:05:56;;;;;;;10.80;8.50;;;;;;;;;;5282002;28;20024;-75
2023/04/18 01:08:27;;;;;;;12.05;7.47;;;;;;;;;;5283197;28;20016;-75
2023/04/18 01:10:58;;;;;;;9.38;7.10;;;;;;;;;;5282190;28;20035;-75
2023/04/18 01:13:29;;;;;;;8.10;7.18;;;;;;;;;;5283182;28;20016;-75
2023/04/18 01:16:01;;;;;;;11.55;6.70;;;;;;;;;;5283088;28;20017;-75
2023/04/18 01:18:34;;;;;;;10.23;7.90;;;;;;;;;;5282566;28;20039;-74
2023/04/18 01:21:05;;;;;;;9.32;7.53;;;;;;;;;;5282813;28;20021;-75
2023/04/18 01:23:36;;;;;;;13.18;7.20;;;;;;;;;;5282323;28;20127;-75
2023/04/18 01:26:07;;;;;;;8.48;6.65;;;;;;;;;;5281836;28;20021;-75
2023/04/18 01:28:38;;;;;;;11.75;6.22;;;;;;;;;;5282111;28;20020;-75
2023/04/18 01:31:10;;;;;;;9.18;6.88;;;;;;;;;;5282601;28;20020;-75
2023/04/18 01:33:41;;;;;;;11.15;7.50;;;;;;;;;;5281764;28;20023;-75
2023/04/18 01:36:12;;;;;;;9.07;6.65;;;;;;;;;;5283309;28;20020;-75
2023/04/18 01:38:43;;;;;;;9.27;6.72;;;;;;;;;;5281765;28;20095;-76
2023/04/18 01:41:14;;;;;;;10.27;6.85;;;;;;;;;;5283071;28;20028;-75
2023/04/18 01:43:46;;;;;;;7.22;6.45;;;;;;;;;;5282265;28;20019;-75
2023/04/18 01:46:17;;;;;;;8.43;6.35;;;;;;;;;;5282153;28;20016;-75
2023/04/18 01:48:48;;;;;;;8.35;6.78;;;;;;;;;;5282103;28;20850;-75
2023/04/18 01:51:20;;;;;;;9.63;6.82;;;;;;;;;;5282227;28;20013;-75
2023/04/18 01:53:51;;;;;;;11.13;7.07;;;;;;;;;;5280463;28;20044;-75
2023/04/18 01:56:22;;;;;;;9.05;6.97;;;;;;;;;;5282247;28;20062;-76
2023/04/18 01:58:53;;;;;;;7.63;6.78;;;;;;;;;;5281790;28;20021;-75
2023/04/18 02:01:24;;;;;;;10.86;7.66;;;;;;;;;;5281580;28;20008;-75
2023/04/18 02:03:56;;;;;;;9.27;8.10;;;;;;;;;;5281491;28;20016;-75
2023/04/18 02:06:27;;;;;;;9.93;7.32;;;;;;;;;;5281874;28;20032;-75
2023/04/18 02:08:58;;;;;;;9.32;6.80;;;;;;;;;;5280351;28;20115;-74
2023/04/18 02:11:29;;;;;;;10.98;7.18;;;;;;;;;;5281697;28;20020;-75
2023/04/18 02:14:00;;;;;;;10.15;6.70;;;;;;;;;;5281121;28;20469;-74
2023/04/18 02:16:32;;;;;;;9.68;7.55;;;;;;;;;;5282067;28;20028;-74
2023/04/18 02:19:05;;;;;;;8.50;7.00;;;;;;;;;;5281876;28;20048;-75
2023/04/18 02:21:36;;;;;;;10.02;7.15;;;;;;;;;;5281340;28;20020;-76
2023/04/18 02:24:07;;;;;;;10.27;7.30;;;;;;;;;;5281539;28;20036;-75
2023/04/18 02:26:38;;;;;;;10.72;7.28;;;;;;;;;;5281297;28;20468;-76
2023/04/18 02:29:09;;;;;;;8.20;6.75;;;;;;;;;;5281123;28;20515;-75
2023/04/18 02:31:41;;;;;;;9.23;7.20;;;;;;;;;;5281141;28;20259;-76
2023/04/18 02:34:12;;;;;;;8.60;6.65;;;;;;;;;;5282187;28;20021;-75
2023/04/18 02:36:43;;;;;;;9.70;7.26;;;;;;;;;;5280663;28;20055;-74
2023/04/18 02:39:14;;;;;;;7.78;6.72;;;;;;;;;;5282020;28;20063;-74
2023/04/18 02:41:45;;;;;;;9.70;6.90;;;;;;;;;;5281185;28;20062;-74
2023/04/18 02:44:16;;;;;;;8.82;6.72;;;;;;;;;;5280858;28;20483;-74
2023/04/18 02:46:48;;;;;;;8.63;7.03;;;;;;;;;;5280884;28;20012;-74
2023/04/18 02:49:19;;;;;;;8.55;6.22;;;;;;;;;;5280806;28;20077;-74
2023/04/18 02:51:53;;;;;;;10.35;7.28;;;;;;;;;;5280731;28;20098;-75
2023/04/18 02:54:24;;;;;;;8.95;7.20;;;;;;;;;;5281464;28;20523;-75
2023/04/18 02:56:55;;;;;;;9.30;6.93;;;;;;;;;;5279797;28;20099;-75
2023/04/18 02:59:26;;;;;;;10.88;6.50;;;;;;;;;;5281916;28;20043;-75
2023/04/18 03:01:58;;;;;;;6.72;6.03;;;;;;;;;;5280758;28;20047;-75
2023/04/18 03:04:29;;;;;;;7.65;6.45;;;;;;;;;;5283768;28;20021;-76
2023/04/18 03:07:00;;;;;;;9.27;6.75;;;;;;;;;;5285515;28;20019;-75
2023/04/18 03:09:31;;;;;;;8.43;6.55;;;;;;;;;;5285232;28;20112;-75
2023/04/18 03:12:02;;;;;;;6.75;6.05;;;;;;;;;;5284773;28;20031;-75
2023/04/18 03:14:34;;;;;;;10.05;6.85;;;;;;;;;;5285286;28;20024;-75
2023/04/18 03:17:05;;;;;;;10.90;6.35;;;;;;;;;;5285298;28;20467;-75
2023/04/18 03:19:36;;;;;;;7.60;5.85;;;;;;;;;;5284408;28;20013;-75
2023/04/18 03:22:08;;;;;;;8.27;6.22;;;;;;;;;;5285006;28;20016;-75
2023/04/18 03:24:40;;;;;;;9.93;6.53;;;;;;;;;;5284236;28;20063;-75
2023/04/18 03:27:11;;;;;;;11.65;6.97;;;;;;;;;;5285511;28;20092;-75
2023/04/18 03:29:42;;;;;;;7.20;5.82;;;;;;;;;;5284767;28;20028;-75
2023/04/18 03:32:13;;;;;;;8.90;6.53;;;;;;;;;;5284477;28;20013;-75
2023/04/18 03:34:45;;;;;;;7.60;6.32;;;;;;;;;;5284546;28;20016;-75
2023/04/18 03:37:16;;;;;;;8.62;6.90;;;;;;;;;;5285122;28;20074;-75
2023/04/18 03:39:47;;;;;;;9.50;6.10;;;;;;;;;;5283593;28;20039;-74
2023/04/18 03:42:18;;;;;;;8.05;6.28;;;;;;;;;;5284945;28;20422;-74
2023/04/18 03:44:49;;;;;;;9.40;6.65;;;;;;;;;;5284080;28;20028;-75
2023/04/18 03:47:21;;;;;;;7.57;6.10;;;;;;;;;;5284235;28;20017;-74
2023/04/18 03:49:53;;;;;;;9.90;7.50;;;;;;;;;;5284126;28;20029;-75
2023/04/18 03:52:24;;;;;;;9.73;7.00;;;;;;;;;;5284061;28;20016;-75
2023/04/18 03:54:55;;;;;;;9.88;7.38;;;;;;;;;;5284043;28;20025;-74
2023/04/18 03:57:26;;;;;;;8.60;7.00;;;;;;;;;;5284565;28;20023;-74
2023/04/18 03:59:58;;;;;;;6.86;6.16;;;;;;;;;;5283552;28;20107;-75
2023/04/18 04:02:29;;;;;;;9.57;6.88;;;;;;;;;;5284797;28;20005;-75
2023/04/18 04:05:02;;;;;;;8.85;6.60;;;;;;;;;;5284552;28;20024;-75
2023/04/18 04:07:33;;;;;;;8.55;6.68;;;;;;;;;;5283710;28;20096;-75
2023/04/18 04:10:04;;;;;;;7.18;5.78;;;;;;;;;;5284425;28;20087;-75
2023/04/18 04:12:35;;;;;;;8.35;6.75;;;;;;;;;;5284595;28;20100;-75
2023/04/18 04:15:07;;;;;;;7.96;6.64;;;;;;;;;;5282569;28;20095;-75
2023/04/18 04:17:38;;;;;;;9.45;6.65;;;;;;;;;;5283837;28;20021;-75
2023/04/18 04:20:10;;;;;;;10.05;6.75;;;;;;;;;;5284607;28;20032;-75
2023/04/18 04:22:41;;;;;;;9.25;6.97;;;;;;;;;;5283349;28;20036;-74
2023/04/18 04:25:12;;;;;;;7.40;6.55;;;;;;;;;;5284343;28;20080;-75
2023/04/18 04:27:44;;;;;;;8.75;6.90;;;;;;;;;;5282898;28;20017;-75
2023/04/18 04:30:15;;;;;;;7.43;6.20;;;;;;;;;;5284298;28;20471;-75
2023/04/18 04:32:46;;;;;;;8.63;7.22;;;;;;;;;;5283359;28;20103;-75
2023/04/18 04:35:17;;;;;;;10.57;7.18;;;;;;;;;;5283426;28;20459;-76
2023/04/18 04:37:49;;;;;;;8.93;7.00;;;;;;;;;;5283223;28;20024;-76
2023/04/18 04:40:21;;;;;;;8.98;6.38;;;;;;;;;;5284074;28;20028;-75
2023/04/18 04:42:53;;;;;;;8.25;5.97;;;;;;;;;;5282744;28;20024;-76
2023/04/18 04:45:24;;;;;;;7.13;5.95;;;;;;;;;;5283772;28;20021;-75
2023/04/18 04:47:55;;;;;;;9.13;7.18;;;;;;;;;;5283066;28;20019;-75
2023/04/18 04:50:26;;;;;;;7.57;5.55;;;;;;;;;;5282999;28;20530;-75
2023/04/18 04:52:57;;;;;;;6.95;5.97;;;;;;;;;;5283133;28;20046;-75
2023/04/18 04:55:29;;;;;;;8.10;5.70;;;;;;;;;;5283729;28;20032;-75
2023/04/18 04:58:00;;;;;;;8.48;6.20;;;;;;;;;;5282647;28;20039;-76
2023/04/18 05:00:31;;;;;;;10.63;6.28;;;;;;;;;;5283331;28;20040;-76
2023/04/18 05:03:02;;;;;;;9.98;6.22;;;;;;;;;;5282282;28;20031;-75
2023/04/18 05:05:33;;;;;;;7.05;6.10;;;;;;;;;;5282982;28;20332;-76
2023/04/18 05:08:05;;;;;;;8.05;6.55;;;;;;;;;;5282696;28;20028;-75
2023/04/18 05:10:36;;;;;;;7.60;6.13;;;;;;;;;;5282290;28;20094;-75
2023/04/18 05:13:07;;;;;;;8.57;6.80;;;;;;;;;;5282959;28;20016;-75
2023/04/18 05:15:38;;;;;;;7.63;6.00;;;;;;;;;;5282593;28;20386;-75
2023/04/18 05:18:10;;;;;;;9.60;6.00;;;;;;;;;;5282311;28;20055;-76
2023/04/18 05:20:41;;;;;;;8.05;6.30;;;;;;;;;;5282231;28;20025;-76
2023/04/18 05:23:12;;;;;;;12.60;7.50;;;;;;;;;;5282744;28;20043;-76
2023/04/18 05:25:43;;;;;;;7.22;6.02;;;;;;;;;;5281079;28;20499;-75
2023/04/18 05:28:15;;;;;;;6.72;5.75;;;;;;;;;;5282740;28;20471;-75
2023/04/18 05:30:46;;;;;;;8.25;6.20;;;;;;;;;;5281989;28;20017;-75
2023/04/18 05:33:17;;;;;;;12.60;7.06;;;;;;;;;;5281599;28;20095;-75
2023/04/18 05:35:48;;;;;;;11.12;6.44;;;;;;;;;;5281849;28;20024;-75
2023/04/18 05:38:20;;;;;;;8.63;6.20;;;;;;;;;;5281750;28;20013;-75
2023/04/18 05:40:54;;;;;;;7.60;6.05;;;;;;;;;;5281874;28;20474;-76
2023/04/18 05:43:25;;;;;;;9.20;6.30;;;;;;;;;;5282573;28;20050;-75
2023/04/18 05:45:56;;;;;;;8.32;6.15;;;;;;;;;;5281376;28;20016;-75
2023/04/18 05:48:27;;;;;;;9.32;6.80;;;;;;;;;;5282756;28;20107;-75
2023/04/18 05:50:59;;;;;;;8.27;6.60;;;;;;;;;;5282116;28;20107;-75
2023/04/18 05:53:30;;;;;;;9.85;6.95;;;;;;;;;;5281344;28;20023;-76
2023/04/18 05:56:02;;;;;;;9.55;6.97;;;;;;;;;;5282008;28;20020;-76
2023/04/18 05:58:33;;;;;;;8.07;5.68;;;;;;;;;;5282186;28;20103;-76
2023/04/18 06:01:05;;;;;;;10.15;6.60;;;;;;;;;;5281319;28;20016;-76
2023/04/18 06:03:36;;;;;;;11.88;6.75;;;;;;;;;;5281733;28;20027;-76
2023/04/18 06:06:07;;;;;;;7.80;5.95;;;;;;;;;;5281052;28;20413;-76
2023/04/18 06:08:39;;;;;;;9.07;6.22;;;;;;;;;;5281216;28;20036;-75
2023/04/18 06:11:10;;;;;;;9.88;6.25;;;;;;;;;;5282074;28;20027;-76
2023/04/18 06:13:41;;;;;;;7.60;5.88;;;;;;;;;;5280947;28;20024;-76
2023/04/18 06:16:12;;;;;;;7.93;5.90;;;;;;;;;;5282287;28;20013;-76
2023/04/18 06:18:44;;;;;;;9.40;6.55;;;;;;;;;;5281142;28;20025;-76
2023/04/18 06:21:15;;;;;;;10.85;6.80;;;;;;;;;;5281626;28;20482;-76
2023/04/18 06:23:46;;;;;;;9.32;6.88;;;;;;;;;;5281060;28;20069;-76
2023/04/18 06:26:17;;;;;;;11.20;7.45;;;;;;;;;;5282347;28;20035;-76
2023/04/18 06:28:49;;;;;;;10.25;7.47;;;;;;;;;;5280716;28;20025;-76
2023/04/18 06:31:20;;;;;;;8.85;7.25;;;;;;;;;;5281867;28;20360;-76
2023/04/18 06:33:51;;;;;;;12.25;7.28;;;;;;;;;;5281242;28;20028;-75
2023/04/18 06:36:23;;;;;;;7.95;6.70;;;;;;;;;;5281067;28;20095;-76
2023/04/18 06:38:54;;;;;;;8.40;6.18;;;;;;;;;;5280854;28;20031;-76
2023/04/18 06:41:25;;;;;;;8.35;7.13;;;;;;;;;;5281093;28;20029;-77
2023/04/18 06:43:56;;;;;;;9.80;8.20;;;;;;;;;;5281488;28;20021;-76
2023/04/18 06:46:27;;;;;;;9.00;7.75;;;;;;;;;;5282019;28;20021;-77
2023/04/18 06:48:58;;;;;;;11.48;7.35;;;;;;;;;;5281522;28;20467;-76
2023/04/18 06:51:30;;;;;;;10.43;6.28;;;;;;;;;;5282357;28;20096;-76
2023/04/18 06:54:01;;;;;;;7.50;6.43;;;;;;;;;;5281819;28;20098;-77
2023/04/18 06:56:32;;;;;;;10.05;6.40;;;;;;;;;;5281209;28;20086;-74
2023/04/18 06:59:04;;;;;;;7.65;6.47;;;;;;;;;;5281843;28;20405;-75
2023/04/18 07:01:40;;;;;;;11.27;6.57;;;;;;;;;;5283822;28;20020;-75
2023/04/18 07:04:11;;;;;;;10.80;7.80;;;;;;;;;;5284874;28;20107;-76
2023/04/18 07:06:42;;;;;;;7.80;6.45;;;;;;;;;;5284242;28;20047;-74
2023/04/18 07:09:13;;;;;;;8.80;6.95;;;;;;;;;;5281920;28;20028;-74
2023/04/18 07:11:44;;;;;;;8.44;6.62;;;;;;;;;;5281893;28;20031;-75
2023/04/18 07:14:16;;;;;;;9.27;7.22;;;;;;;;;;5283483;28;20017;-75
2023/04/18 07:16:47;;;;;;;9.05;7.38;;;;;;;;;;5280360;28;20028;-74
2023/04/18 07:19:18;;;;;;;11.35;7.30;;;;;;;;;;5281891;28;20467;-76
2023/04/18 07:21:49;;;;;;;10.20;6.70;;;;;;;;;;5281291;28;20055;-75
2023/04/18 07:24:22;;;;;;;9.00;6.78;;;;;;;;;;5280586;28;20079;-74
2023/04/18 07:26:53;;;;;;;8.57;6.00;;;;;;;;;;5281014;28;20013;-74
2023/04/18 07:29:24;;;;;;;8.00;6.10;;;;;;;;;;5281589;28;20024;-75
2023/04/18 07:31:56;;;;;;;7.28;6.00;;;;;;;;;;5279994;28;20074;-75
2023/04/18 07:34:28;;;;;;;9.07;6.32;;;;;;;;;;5281242;28;20029;-75
2023/04/18 07:36:59;;;;;;;7.50;5.57;;;;;;;;;;5280358;28;20017;-75
2023/04/18 07:39:34;;;;;;;9.15;6.10;;;;;;;;;;5280107;28;20021;-76
2023/04/18 07:42:06;;;;;;;6.95;6.25;;;;;;;;;;5280825;28;20028;-74
2023/04/18 07:44:37;;;;;;;8.07;6.07;;;;;;;;;;5280940;28;20056;-75
2023/04/18 07:47:09;;;;;;;7.22;6.20;;;;;;;;;;5281028;28;20028;-75
2023/04/18 07:49:40;;;;;;;10.30;6.80;;;;;;;;;;5280044;28;20021;-75
2023/04/18 07:52:11;;;;;;;9.85;6.18;;;;;;;;;;5284006;28;20387;-74
2023/04/18 07:54:42;;;;;;;7.90;5.55;;;;;;;;;;5284013;28;20051;-74
2023/04/18 07:57:13;;;;;;;5.95;5.20;;;;;;;;;;5284660;28;20274;-75
2023/04/18 07:59:45;;;;;;;8.65;5.22;;;;;;;;;;5283408;28;20060;-74
2023/04/18 08:02:16;;;;;;;7.63;5.95;;;;;;;;;;5284597;28;20021;-74
2023/04/18 08:04:48;;;;;;;8.52;5.32;;;;;;;;;;5283851;28;20103;-74
2023/04/18 08:07:20;;;;;;;7.25;5.50;;;;;;;;;;5283877;28;20021;-74
2023/04/18 08:09:51;;;;;;;4.97;4.38;;;;;;;;;;5284381;28;20028;-74
2023/04/18 08:12:22;;;;;;;5.72;4.97;;;;;;;;;;5284673;28;20028;-74
2023/04/18 08:14:53;;;;;;;5.95;5.35;;;;;;;;;;5283131;28;20020;-73
2023/04/18 08:17:25;;;;;;;6.30;5.30;;;;;;;;;;5284065;28;20021;-73
2023/04/18 08:19:57;;;;;;;5.55;5.03;;;;;;;;;;5282455;28;20036;-74
2023/04/18 08:22:28;;;;;;;6.53;5.50;;;;;;;;;;5284158;28;20017;-73
2023/04/18 08:25:00;;;;;;;6.22;5.53;;;;;;;;;;5283378;28;20063;-73
2023/04/18 08:27:32;;;;;;;6.93;6.18;;;;;;;;;;5282598;28;20055;-74
2023/04/18 08:30:03;;;;;;;7.00;6.03;;;;;;;;;;5283719;28;20449;-74
2023/04/18 08:32:35;;;;;;;6.40;5.68;;;;;;;;;;5283928;28;20044;-72
2023/04/18 08:35:06;;;;;;;6.93;5.45;;;;;;;;;;5283274;28;20079;-72
2023/04/18 08:37:37;;;;;;;5.97;5.03;;;;;;;;;;5283638;28;20016;-72
2023/04/18 08:40:09;;;;;;;5.95;5.35;;;;;;;;;;5283864;28;20024;-72
2023/04/18 08:42:41;;;;;;;5.90;5.28;;;;;;;;;;5282423;28;20020;-72
2023/04/18 08:45:13;;;;;;;7.00;6.18;;;;;;;;;;5283993;28;20009;-72
2023/04/18 08:47:44;;;;;;;7.22;5.85;;;;;;;;;;5282480;28;20371;-72
2023/04/18 08:50:16;;;;;;;6.18;5.60;;;;;;;;;;5283630;28;20462;-72
2023/04/18 08:52:48;;;;;;;7.30;5.75;;;;;;;;;;5282958;28;20027;-73
2023/04/18 08:55:23;;;;;;;6.47;5.70;;;;;;;;;;5282711;28;20021;-72
2023/04/18 08:57:54;;;;;;;6.07;5.47;;;;;;;;;;5283310;28;20012;-72
2023/04/18 09:00:26;;;;;;;6.35;5.75;;;;;;;;;;5283920;28;20046;-72
2023/04/18 09:02:57;;;;;;;7.18;5.63;;;;;;;;;;5282163;28;20095;-72
2023/04/18 09:05:29;;;;;;;7.00;5.00;;;;;;;;;;5283518;28;20024;-72
2023/04/18 09:08:20;;;;;;;5.78;5.18;;;;;;;;;;5283276;28;20020;-73
2023/04/18 09:10:51;;;;;;;7.07;5.80;;;;;;;;;;5282220;28;20038;-73
2023/04/18 09:13:46;;;;;;;5.60;5.10;;;;;;;;;;5283487;28;20021;-73
2023/04/18 09:16:21;;;;;;;6.13;5.53;;;;;;;;;;5282965;28;20344;-72
2023/04/18 09:19:12;;;;;;;6.03;5.25;;;;;;;;;;5282628;28;20066;-72
2023/04/18 09:21:47;;;;;;;5.85;5.25;;;;;;;;;;5282770;28;20087;-72
2023/04/18 09:24:22;;;;;;;6.53;5.70;;;;;;;;;;5282289;28;20491;-72
2023/04/18 09:26:55;;;;;;;8.05;5.45;;;;;;;;;;5282788;28;20020;-72
2023/04/18 09:29:40;;;;;;;7.03;6.07;;;;;;;;;;5283407;28;20057;-71
2023/04/18 09:32:23;;;;;;;6.75;5.55;;;;;;;;;;5282463;28;20371;-72
2023/04/18 09:35:00;;;;;;;8.02;4.80;;;;;;;;;;5282356;28;20024;-72
2023/04/18 09:37:31;;;;;;;7.88;5.07;;;;;;;;;;5281903;28;20206;-72
2023/04/18 09:40:14;;;;;;;5.15;4.68;;;;;;;;;;5282488;28;20107;-73
2023/04/18 09:42:47;;;;;;;7.70;5.63;;;;;;;;;;5281762;28;20459;-73
2023/04/18 09:45:18;;;;;;;5.60;4.90;;;;;;;;;;5281776;28;20418;-72
2023/04/18 09:47:49;;;;;;;6.30;4.68;;;;;;;;;;5282052;28;20024;-70
2023/04/18 09:50:21;;;;;;;5.32;4.60;;;;;;;;;;5282484;28;20070;-72
2023/04/18 09:52:53;;;;;;;5.00;4.40;;;;;;;;;;5281011;28;20040;-71
2023/04/18 09:55:24;;;;;;;5.00;4.55;;;;;;;;;;5282557;28;20527;-72
2023/04/18 09:57:58;;;;;;;4.78;4.32;;;;;;;;;;5282496;28;20021;-73
2023/04/18 10:00:29;;;;;;;6.85;4.82;;;;;;;;;;5281636;28;20139;-71
2023/04/18 10:03:08;;;;;;;5.00;4.32;;;;;;;;;;5281951;28;20044;-72
2023/04/18 10:05:40;;;;;;;5.53;4.32;;;;;;;;;;5281121;28;20126;-72
2023/04/18 10:08:12;;;;;;;4.97;3.95;;;;;;;;;;5282518;28;20487;-72
2023/04/18 10:10:43;;;;;;;4.50;3.15;;;;;;;;;;5282036;28;20033;-73
2023/04/18 10:13:16;;;;;;;3.95;3.55;;;;;;;;;;5281321;28;20016;-72
2023/04/18 10:15:48;;;;;;;3.38;2.92;;;;;;;;;;5281891;28;20024;-72
2023/04/18 10:18:21;;;;;;;4.68;3.05;;;;;;;;;;5282292;28;20020;-72
2023/04/18 10:20:59;;;;;;;3.97;3.58;;;;;;;;;;5280889;28;20020;-71
2023/04/18 10:23:31;;;;;;;4.07;3.05;;;;;;;;;;5282195;28;20021;-72
2023/04/18 10:26:06;;;;;;;3.72;2.75;;;;;;;;;;5281815;28;20057;-71
2023/04/18 10:28:55;;;;;;;2.20;1.80;;;;;;;;;;5280802;28;20015;-71
2023/04/18 10:31:27;;;;;;;3.03;2.60;;;;;;;;;;5282498;28;20089;-71
2023/04/18 10:34:00;;;;;;;3.28;2.22;;;;;;;;;;5281063;28;20129;-71
2023/04/18 10:36:31;;;;;;;3.75;2.08;;;;;;;;;;5281758;28;20045;-71
2023/04/18 10:39:22;;;;;;;5.10;3.08;;;;;;;;;;5281903;28;20034;-71
2023/04/18 10:41:53;;;;;;;5.68;2.35;;;;;;;;;;5280457;28;20070;-70
2023/04/18 10:44:25;;;;;;;3.78;2.60;;;;;;;;;;5281977;28;20478;-71
2023/04/18 10:46:56;;;;;;;3.90;3.00;;;;;;;;;;5281148;28;20094;-71
2023/04/18 10:49:28;;;;;;;4.82;2.85;;;;;;;;;;5280997;28;20482;-70
2023/04/18 10:52:00;;;;;;;2.80;2.20;;;;;;;;;;5281141;28;20273;-70
2023/04/18 10:54:45;;;;;;;3.00;2.67;;;;;;;;;;5281003;28;20017;-71
2023/04/18 10:57:16;;;;;;;3.55;2.70;;;;;;;;;;5281430;28;20111;-71
2023/04/18 10:59:49;;;;;;;3.17;2.40;;;;;;;;;;5281048;28;20127;-72
2023/04/18 11:02:24;;;;;;;2.85;2.42;;;;;;;;;;5280978;28;20019;-71
2023/04/18 11:04:57;;;;;;;3.13;2.80;;;;;;;;;;5281166;28;20019;-72
2023/04/18 11:07:34;;;;;;;3.25;2.88;;;;;;;;;;5281453;28;20033;-72
2023/04/18 11:10:06;;;;;;;3.65;2.90;;;;;;;;;;5280453;28;20085;-72
2023/04/18 11:12:39;;;;;;;3.03;2.72;;;;;;;;;;5277352;28;20113;-72
2023/04/18 11:15:11;;;;;;;3.92;2.72;;;;;;;;;;5281417;28;20408;-72
2023/04/18 11:17:42;;;;;;;3.63;3.33;;;;;;;;;;5280030;28;20009;-72
2023/04/18 11:20:14;;;;;;;3.85;3.55;;;;;;;;;;5281214;28;20028;-72
2023/04/18 11:22:55;;;;;;;4.65;4.20;;;;;;;;;;5279947;28;20352;-72
2023/04/18 11:25:35;;;;;;;6.10;4.10;;;;;;;;;;5283636;28;20045;-71
2023/04/18 11:28:06;;;;;;;4.38;3.97;;;;;;;;;;5284558;28;20040;-73
2023/04/18 11:30:38;;;;;;;5.70;5.20;;;;;;;;;;5283794;28;20509;-71
2023/04/18 11:33:10;;;;;;;5.00;3.78;;;;;;;;;;5284605;28;20397;-71
2023/04/18 11:35:45;;;;;;;6.88;4.53;;;;;;;;;;5284008;28;20130;-71
2023/04/18 11:38:17;;;;;;;5.07;4.53;;;;;;;;;;5283970;28;20131;-71
2023/04/18 11:40:48;;;;;;;5.20;4.70;;;;;;;;;;5282643;28;20024;-72
2023/04/18 11:43:21;;;;;;;7.57;5.68;;;;;;;;;;5285322;28;20021;-72
2023/04/18 11:45:56;;;;;;;6.35;5.75;;;;;;;;;;5283873;28;20032;-72
2023/04/18 11:48:35;;;;;;;6.68;6.00;;;;;;;;;;5285376;28;20025;-72
2023/04/18 11:51:07;;;;;;;7.13;5.72;;;;;;;;;;5284315;28;20387;-71
2023/04/18 11:53:38;;;;;;;6.70;6.00;;;;;;;;;;5284241;28;20021;-72
2023/04/18 11:56:12;;;;;;;7.72;5.50;;;;;;;;;;5285037;28;20033;-73
2023/04/18 11:58:43;;;;;;;6.45;5.78;;;;;;;;;;5280750;28;20013;-69
2023/04/18 12:01:15;;;;;;;6.20;5.60;;;;;;;;;;5284304;28;20383;-70
2023/04/18 12:04:03;;;;;;;7.43;5.45;;;;;;;;;;5283991;28;20021;-71
2023/04/18 12:06:47;;;;;;;5.55;5.05;;;;;;;;;;5283370;28;20017;-71
2023/04/18 12:09:20;;;;;;;8.43;5.72;;;;;;;;;;5284738;28;20031;-71
2023/04/18 12:12:01;;;;;;;6.53;5.68;;;;;;;;;;5283321;28;20020;-71
2023/04/18 12:14:34;;;;;;;7.03;5.13;;;;;;;;;;5284242;28;20031;-73
2023/04/18 12:17:05;;;;;;;6.72;6.13;;;;;;;;;;5284062;28;20032;-72
2023/04/18 12:19:36;;;;;;;8.05;6.40;;;;;;;;;;5283414;28;20025;-73
2023/04/18 12:22:08;;;;;;;10.32;7.03;;;;;;;;;;5284039;28;20023;-72
2023/04/18 12:24:40;;;;;;;7.90;6.00;;;;;;;;;;5283180;28;20343;-72
2023/04/18 12:27:11;;;;;;;6.97;6.22;;;;;;;;;;5283784;28;20012;-71
2023/04/18 12:29:43;;;;;;;8.18;6.80;;;;;;;;;;5283321;28;20033;-71
2023/04/18 12:32:15;;;;;;;8.85;7.97;;;;;;;;;;5284580;28;20020;-70
2023/04/18 12:34:47;;;;;;;9.07;7.38;;;;;;;;;;5282413;28;20480;-71
2023/04/18 12:37:24;;;;;;;9.23;7.17;;;;;;;;;;5278680;28;20013;-71
2023/04/18 12:39:55;;;;;;;8.07;7.28;;;;;;;;;;5261239;28;20311;-70
2023/04/18 12:42:26;;;;;;;9.65;8.13;;;;;;;;;;5263320;28;20094;-72
2023/04/18 12:44:59;;;;;;;8.77;7.97;;;;;;;;;;5262517;28;20116;-72
2023/04/18 12:47:30;;;;;;;9.55;8.65;;;;;;;;;;5260637;28;20067;-71
2023/04/18 12:50:01;;;;;;;9.63;8.63;;;;;;;;;;5262350;28;20111;-71
2023/04/18 12:52:34;;;;;;;9.52;8.52;;;;;;;;;;5262411;28;20025;-72
2023/04/18 12:55:05;;;;;;;8.85;8.02;;;;;;;;;;5261518;28;20029;-71
2023/04/18 12:57:37;;;;;;;10.25;7.80;;;;;;;;;;5256417;28;20032;-72
2023/04/18 13:00:09;;;;;;;9.90;8.85;;;;;;;;;;5251195;28;20063;-71
2023/04/18 13:02:42;;;;;;;9.63;8.73;;;;;;;;;;5259723;28;20025;-70
2023/04/18 13:05:14;;;;;;;9.85;8.80;;;;;;;;;;5260922;28;20033;-71
2023/04/18 13:07:47;;;;;;;9.02;8.13;;;;;;;;;;5260038;28;20017;-71
2023/04/18 13:10:19;;;;;;;9.98;8.05;;;;;;;;;;5259395;28;20167;-70
2023/04/18 13:12:51;;;;;;;10.02;7.85;;;;;;;;;;5260866;28;20384;-71
2023/04/18 13:15:22;;;;;;;10.80;8.75;;;;;;;;;;5260775;28;20028;-70
2023/04/18 13:17:57;;;;;;;9.32;8.43;;;;;;;;;;5260714;28;20473;-70
2023/04/18 13:20:28;;;;;;;8.57;7.68;;;;;;;;;;5261946;28;20364;-71
2023/04/18 13:23:01;;;;;;;11.10;10.07;;;;;;;;;;5260513;28;20024;-71
2023/04/18 13:25:32;;;;;;;11.43;9.75;;;;;;;;;;5277041;28;20044;-71
2023/04/18 13:28:03;;;;;;;9.75;8.70;;;;;;;;;;5279193;28;20093;-71
2023/04/18 13:30:34;;;;;;;10.93;9.82;;;;;;;;;;5278914;28;20537;-71
2023/04/18 13:33:05;;;;;;;12.30;9.60;;;;;;;;;;5281426;28;20460;-71
2023/04/18 13:35:37;;;;;;;10.98;9.68;;;;;;;;;;5281582;28;20039;-71
2023/04/18 13:38:09;;;;;;;12.55;11.30;;;;;;;;;;5280809;28;20032;-71
2023/04/18 13:40:41;;;;;;;12.05;10.93;;;;;;;;;;5281269;28;20028;-71
2023/04/18 13:43:14;;;;;;;12.40;9.85;;;;;;;;;;5280287;28;20028;-71
2023/04/18 13:45:45;;;;;;;11.55;10.45;;;;;;;;;;5280917;28;20059;-71
2023/04/18 13:48:16;;;;;;;12.68;11.38;;;;;;;;;;5280815;28;20093;-70
2023/04/18 13:50:48;;;;;;;12.35;11.25;;;;;;;;;;5280370;28;20299;-71
2023/04/18 13:53:19;;;;;;;13.07;10.40;;;;;;;;;;5281458;28;20028;-71
2023/04/18 13:55:51;;;;;;;11.75;10.55;;;;;;;;;;5280776;28;20097;-71
2023/04/18 13:58:22;;;;;;;11.73;9.70;;;;;;;;;;5280544;28;20020;-70
2023/04/18 14:00:53;;;;;;;11.25;9.15;;;;;;;;;;5280886;28;20316;-70
2023/04/18 14:03:25;;;;;;;13.02;10.80;;;;;;;;;;5277501;28;20050;-70
2023/04/18 14:05:58;;;;;;;11.88;9.55;;;;;;;;;;5279248;28;20016;-70
2023/04/18 14:08:29;;;;;;;11.50;10.30;;;;;;;;;;5279850;28;20020;-72
2023/04/18 14:11:00;;;;;;;13.13;11.82;;;;;;;;;;5279751;28;20025;-70
2023/04/18 14:13:31;;;;;;;14.02;11.32;;;;;;;;;;5278724;28;20585;-70
2023/04/18 14:16:03;;;;;;;16.53;12.23;;;;;;;;;;5280973;28;20834;-71
2023/04/18 14:18:34;;;;;;;14.27;12.65;;;;;;;;;;5280656;28;20621;-71
2023/04/18 14:21:06;;;;;;;14.35;12.95;;;;;;;;;;5281961;28;20466;-71
2023/04/18 14:23:37;;;;;;;14.38;12.88;;;;;;;;;;5281896;28;20016;-72
2023/04/18 14:26:08;;;;;;;14.23;12.65;;;;;;;;;;5281470;28;20111;-72
2023/04/18 14:28:39;;;;;;;14.38;12.88;;;;;;;;;;5281168;28;20025;-72
2023/04/18 14:31:12;;;;;;;14.18;12.07;;;;;;;;;;5282369;28;20075;-73
2023/04/18 14:33:43;;;;;;;17.00;12.48;;;;;;;;;;5279751;28;20025;-72
2023/04/18 14:36:15;;;;;;;16.40;13.07;;;;;;;;;;5280325;28;20035;-71
2023/04/18 14:38:47;;;;;;;14.40;13.00;;;;;;;;;;5280074;28;20644;-71
2023/04/18 14:41:19;;;;;;;13.63;12.23;;;;;;;;;;5281243;28;20398;-71
2023/04/18 14:43:50;;;;;;;14.40;12.52;;;;;;;;;;5281281;28;20028;-72
2023/04/18 14:46:21;;;;;;;13.50;12.15;;;;;;;;;;5281844;28;20013;-70
2023/04/18 14:48:53;;;;;;;14.05;12.65;;;;;;;;;;5280368;28;20051;-71
2023/04/18 14:51:25;;;;;;;12.88;11.43;;;;;;;;;;5281443;28;20055;-71
2023/04/18 14:53:56;;;;;;;13.75;12.13;;;;;;;;;;5280705;28;20366;-71
2023/04/18 14:56:27;;;;;;;14.10;12.63;;;;;;;;;;5281729;28;20078;-71
2023/04/18 14:58:58;;;;;;;13.18;11.82;;;;;;;;;;5280667;28;20048;-71
2023/04/18 15:01:30;;;;;;;12.63;11.43;;;;;;;;;;5280629;28;20017;-71
2023/04/18 15:04:03;;;;;;;13.07;11.77;;;;;;;;;;5281308;28;20744;-71
2023/04/18 15:06:35;;;;;;;12.98;11.68;;;;;;;;;;5281150;28;20020;-71